sensor_id;sensor_type;location;lat;lon;timestamp;pressure;altitude;pressure_sealevel;temperature;humidity
28079;BME280;15388;42.238;24.684;2022-08-21T00:00:35;98768.09;;;20.81;100.00
28079;BME280;15388;42.238;24.684;2022-08-21T00:03:03;98769.91;;;20.87;100.00
28079;BME280;15388;42.238;24.684;2022-08-21T00:05:29;98761.97;;;20.93;100.00
28079;BME280;15388;42.238;24.684;2022-08-21T00:07:55;98768.13;;;21.00;100.00
28079;BME280;15388;42.238;24.684;2022-08-21T00:10:20;98772.25;;;21.03;100.00
28079;BME280;15388;42.238;24.684;2022-08-21T00:12:46;98769.72;;;21.08;100.00
28079;BME280;15388;42.238;24.684;2022-08-21T00:15:13;98780.31;;;21.09;100.00
28079;BME280;15388;42.238;24.684;2022-08-21T00:17:38;98783.16;;;21.15;100.00
28079;BME280;15388;42.238;24.684;2022-08-21T00:20:04;98787.16;;;21.12;100.00
28079;BME280;15388;42.238;24.684;2022-08-21T00:22:30;98775.56;;;21.23;100.00
28079;BME280;15388;42.238;24.684;2022-08-21T00:24:56;98788.00;;;21.31;100.00
28079;BME280;15388;42.238;24.684;2022-08-21T00:27:21;98778.59;;;21.34;100.00
28079;BME280;15388;42.238;24.684;2022-08-21T00:29:47;98770.25;;;21.35;100.00
28079;BME280;15388;42.238;24.684;2022-08-21T00:32:12;98771.75;;;21.31;100.00
28079;BME280;15388;42.238;24.684;2022-08-21T00:34:37;98768.88;;;21.26;100.00
28079;BME280;15388;42.238;24.684;2022-08-21T00:37:03;98775.56;;;21.23;100.00
28079;BME280;15388;42.238;24.684;2022-08-21T00:39:29;98766.41;;;21.24;100.00
28079;BME280;15388;42.238;24.684;2022-08-21T00:41:54;98767.69;;;21.22;100.00
28079;BME280;15388;42.238;24.684;2022-08-21T00:44:19;98775.81;;;21.22;100.00
28079;BME280;15388;42.238;24.684;2022-08-21T00:46:45;98785.72;;;21.09;100.00
28079;BME280;15388;42.238;24.684;2022-08-21T00:49:11;98772.34;;;21.15;100.00
28079;BME280;15388;42.238;24.684;2022-08-21T00:51:45;98766.50;;;21.18;100.00
28079;BME280;15388;42.238;24.684;2022-08-21T00:54:12;98757.19;;;21.13;100.00
28079;BME280;15388;42.238;24.684;2022-08-21T00:56:38;98755.38;;;21.07;100.00
28079;BME280;15388;42.238;24.684;2022-08-21T00:59:03;98753.59;;;21.01;100.00
28079;BME280;15388;42.238;24.684;2022-08-21T01:01:30;98750.56;;;21.09;100.00
28079;BME280;15388;42.238;24.684;2022-08-21T01:03:55;98756.19;;;21.08;100.00
28079;BME280;15388;42.238;24.684;2022-08-21T01:06:21;98760.31;;;21.10;100.00
28079;BME280;15388;42.238;24.684;2022-08-21T01:08:46;98763.88;;;21.11;100.00
28079;BME280;15388;42.238;24.684;2022-08-21T01:11:11;98765.75;;;21.10;100.00
28079;BME280;15388;42.238;24.684;2022-08-21T01:13:37;98752.53;;;21.02;100.00
28079;BME280;15388;42.238;24.684;2022-08-21T01:16:04;98752.53;;;21.02;100.00
28079;BME280;15388;42.238;24.684;2022-08-21T01:18:33;98748.75;;;21.03;100.00
28079;BME280;15388;42.238;24.684;2022-08-21T01:21:12;98752.06;;;21.05;100.00
28079;BME280;15388;42.238;24.684;2022-08-21T01:23:39;98752.44;;;21.09;100.00
28079;BME280;15388;42.238;24.684;2022-08-21T01:26:06;98750.41;;;21.04;100.00
28079;BME280;15388;42.238;24.684;2022-08-21T01:28:33;98746.34;;;20.95;100.00
28079;BME280;15388;42.238;24.684;2022-08-21T01:30:59;98731.44;;;20.85;100.00
28079;BME280;15388;42.238;24.684;2022-08-21T01:33:26;98722.97;;;20.82;100.00
28079;BME280;15388;42.238;24.684;2022-08-21T01:35:51;98726.88;;;20.86;100.00
28079;BME280;15388;42.238;24.684;2022-08-21T01:38:17;98728.16;;;20.83;100.00
28079;BME280;15388;42.238;24.684;2022-08-21T01:40:42;98718.22;;;20.77;100.00
28079;BME280;15388;42.238;24.684;2022-08-21T01:43:08;98713.38;;;20.60;100.00
28079;BME280;15388;42.238;24.684;2022-08-21T01:45:33;98726.31;;;20.58;100.00
28079;BME280;15388;42.238;24.684;2022-08-21T01:47:58;98722.69;;;20.65;100.00
28079;BME280;15388;42.238;24.684;2022-08-21T01:50:24;98741.78;;;20.70;100.00
28079;BME280;15388;42.238;24.684;2022-08-21T01:52:49;98743.66;;;20.69;100.00
28079;BME280;15388;42.238;24.684;2022-08-21T01:55:15;98760.63;;;20.77;100.00
28079;BME280;15388;42.238;24.684;2022-08-21T01:57:41;98771.41;;;20.83;100.00
28079;BME280;15388;42.238;24.684;2022-08-21T02:00:07;98795.88;;;20.88;100.00
28079;BME280;15388;42.238;24.684;2022-08-21T02:02:34;98796.09;;;20.94;100.00
28079;BME280;15388;42.238;24.684;2022-08-21T02:05:00;98804.28;;;20.80;100.00
28079;BME280;15388;42.238;24.684;2022-08-21T02:07:25;98808.03;;;20.79;100.00
28079;BME280;15388;42.238;24.684;2022-08-21T02:09:51;98807.25;;;20.72;100.00
28079;BME280;15388;42.238;24.684;2022-08-21T02:12:16;98823.94;;;20.69;100.00
28079;BME280;15388;42.238;24.684;2022-08-21T02:14:41;98820.63;;;20.67;100.00
28079;BME280;15388;42.238;24.684;2022-08-21T02:17:07;98828.88;;;20.72;100.00
28079;BME280;15388;42.238;24.684;2022-08-21T02:19:32;98820.53;;;20.73;100.00
28079;BME280;15388;42.238;24.684;2022-08-21T02:21:57;98826.03;;;20.67;100.00
28079;BME280;15388;42.238;24.684;2022-08-21T02:24:22;98828.66;;;20.48;100.00
28079;BME280;15388;42.238;24.684;2022-08-21T02:26:48;98824.13;;;20.42;100.00
28079;BME280;15388;42.238;24.684;2022-08-21T02:29:13;98820.47;;;20.29;100.00
28079;BME280;15388;42.238;24.684;2022-08-21T02:31:38;98824.75;;;20.11;100.00
28079;BME280;15388;42.238;24.684;2022-08-21T02:34:04;98826.41;;;20.13;100.00
28079;BME280;15388;42.238;24.684;2022-08-21T02:36:29;98816.78;;;20.23;100.00
28079;BME280;15388;42.238;24.684;2022-08-21T02:38:55;98812.53;;;20.34;100.00
28079;BME280;15388;42.238;24.684;2022-08-21T02:41:21;98803.34;;;20.42;100.00
28079;BME280;15388;42.238;24.684;2022-08-21T02:43:47;98808.84;;;20.29;100.00
28079;BME280;15388;42.238;24.684;2022-08-21T02:46:14;98817.50;;;20.38;100.00
28079;BME280;15388;42.238;24.684;2022-08-21T02:48:40;98817.06;;;20.41;100.00
28079;BME280;15388;42.238;24.684;2022-08-21T02:51:07;98816.25;;;20.40;100.00
28079;BME280;15388;42.238;24.684;2022-08-21T02:53:32;98821.97;;;20.51;100.00
28079;BME280;15388;42.238;24.684;2022-08-21T02:56:00;98832.28;;;20.60;100.00
28079;BME280;15388;42.238;24.684;2022-08-21T02:58:28;98836.53;;;20.75;100.00
28079;BME280;15388;42.238;24.684;2022-08-21T03:00:53;98837.53;;;20.81;100.00
28079;BME280;15388;42.238;24.684;2022-08-21T03:03:19;98835.41;;;20.90;100.00
28079;BME280;15388;42.238;24.684;2022-08-21T03:05:46;98833.94;;;20.94;100.00
28079;BME280;15388;42.238;24.684;2022-08-21T03:08:13;98840.69;;;21.03;100.00
28079;BME280;15388;42.238;24.684;2022-08-21T03:10:45;98847.72;;;21.11;100.00
28079;BME280;15388;42.238;24.684;2022-08-21T03:13:11;98847.19;;;21.21;100.00
28079;BME280;15388;42.238;24.684;2022-08-21T03:15:37;98843.44;;;21.22;100.00
28079;BME280;15388;42.238;24.684;2022-08-21T03:18:02;98841.94;;;21.26;100.00
28079;BME280;15388;42.238;24.684;2022-08-21T03:20:29;98829.44;;;21.06;100.00
28079;BME280;15388;42.238;24.684;2022-08-21T03:22:57;98819.16;;;20.96;100.00
28079;BME280;15388;42.238;24.684;2022-08-21T03:25:23;98806.69;;;20.88;100.00
28079;BME280;15388;42.238;24.684;2022-08-21T03:27:49;98803.63;;;20.59;100.00
28079;BME280;15388;42.238;24.684;2022-08-21T03:30:16;98797.28;;;20.47;100.00
28079;BME280;15388;42.238;24.684;2022-08-21T03:32:42;98791.13;;;20.40;100.00
28079;BME280;15388;42.238;24.684;2022-08-21T03:35:08;98798.38;;;20.39;100.00
28079;BME280;15388;42.238;24.684;2022-08-21T03:37:33;98793.63;;;20.34;100.00
28079;BME280;15388;42.238;24.684;2022-08-21T03:39:59;98793.41;;;20.36;100.00
28079;BME280;15388;42.238;24.684;2022-08-21T03:42:24;98790.50;;;20.38;100.00
28079;BME280;15388;42.238;24.684;2022-08-21T03:44:50;98791.19;;;20.26;100.00
28079;BME280;15388;42.238;24.684;2022-08-21T03:47:15;98798.53;;;20.19;100.00
28079;BME280;15388;42.238;24.684;2022-08-21T03:49:41;98807.34;;;20.07;100.00
28079;BME280;15388;42.238;24.684;2022-08-21T03:52:06;98807.69;;;20.18;100.00
28079;BME280;15388;42.238;24.684;2022-08-21T03:54:32;98820.06;;;20.32;100.00
28079;BME280;15388;42.238;24.684;2022-08-21T03:56:57;98822.63;;;20.46;100.00
28079;BME280;15388;42.238;24.684;2022-08-21T03:59:22;98827.31;;;20.57;100.00
28079;BME280;15388;42.238;24.684;2022-08-21T04:01:55;98831.81;;;20.70;100.00
28079;BME280;15388;42.238;24.684;2022-08-21T04:04:20;98837.09;;;20.84;100.00
28079;BME280;15388;42.238;24.684;2022-08-21T04:06:46;98835.41;;;20.90;100.00
28079;BME280;15388;42.238;24.684;2022-08-21T04:09:11;98845.00;;;20.85;100.00
28079;BME280;15388;42.238;24.684;2022-08-21T04:11:37;98837.69;;;20.93;100.00
28079;BME280;15388;42.238;24.684;2022-08-21T04:14:02;98839.28;;;21.00;100.00
28079;BME280;15388;42.238;24.684;2022-08-21T04:16:28;98842.34;;;21.04;100.00
28079;BME280;15388;42.238;24.684;2022-08-21T04:18:53;98842.53;;;21.09;100.00
28079;BME280;15388;42.238;24.684;2022-08-21T04:21:18;98838.75;;;21.10;100.00
28079;BME280;15388;42.238;24.684;2022-08-21T04:23:43;98841.03;;;21.13;100.00
28079;BME280;15388;42.238;24.684;2022-08-21T04:26:09;98841.47;;;21.10;100.00
28079;BME280;15388;42.238;24.684;2022-08-21T04:28:34;98840.25;;;21.06;100.00
28079;BME280;15388;42.238;24.684;2022-08-21T04:30:59;98837.41;;;21.01;100.00
28079;BME280;15388;42.238;24.684;2022-08-21T04:33:24;98830.31;;;21.00;100.00
28079;BME280;15388;42.238;24.684;2022-08-21T04:35:50;98831.31;;;21.06;100.00
28079;BME280;15388;42.238;24.684;2022-08-21T04:38:16;98828.25;;;21.02;100.00
28079;BME280;15388;42.238;24.684;2022-08-21T04:40:41;98819.84;;;21.10;100.00
28079;BME280;15388;42.238;24.684;2022-08-21T04:43:07;98819.75;;;21.17;100.00
28079;BME280;15388;42.238;24.684;2022-08-21T04:45:35;98823.47;;;21.23;100.00
28079;BME280;15388;42.238;24.684;2022-08-21T04:48:02;98824.88;;;21.25;100.00
28079;BME280;15388;42.238;24.684;2022-08-21T04:50:30;98825.41;;;21.34;100.00
28079;BME280;15388;42.238;24.684;2022-08-21T04:52:56;98824.50;;;21.41;100.00
28079;BME280;15388;42.238;24.684;2022-08-21T04:55:22;98813.84;;;21.46;100.00
28079;BME280;15388;42.238;24.684;2022-08-21T04:57:48;98807.03;;;21.55;100.00
28079;BME280;15388;42.238;24.684;2022-08-21T05:00:18;98804.13;;;21.57;100.00
28079;BME280;15388;42.238;24.684;2022-08-21T05:02:44;98800.72;;;21.61;100.00
28079;BME280;15388;42.238;24.684;2022-08-21T05:05:12;98796.94;;;21.50;100.00
28079;BME280;15388;42.238;24.684;2022-08-21T05:07:38;98797.00;;;21.44;100.00
28079;BME280;15388;42.238;24.684;2022-08-21T05:10:03;98798.06;;;21.43;100.00
28079;BME280;15388;42.238;24.684;2022-08-21T05:12:30;98808.03;;;21.42;100.00
28079;BME280;15388;42.238;24.684;2022-08-21T05:14:56;98797.97;;;21.49;100.00
28079;BME280;15388;42.238;24.684;2022-08-21T05:17:21;98796.47;;;21.54;100.00
28079;BME280;15388;42.238;24.684;2022-08-21T05:19:47;98790.34;;;21.58;100.00
28079;BME280;15388;42.238;24.684;2022-08-21T05:22:18;98788.09;;;21.55;100.00
28079;BME280;15388;42.238;24.684;2022-08-21T05:24:43;98787.75;;;21.51;100.00
28079;BME280;15388;42.238;24.684;2022-08-21T05:27:09;98783.97;;;21.53;100.00
28079;BME280;15388;42.238;24.684;2022-08-21T05:29:34;98781.81;;;21.24;100.00
28079;BME280;15388;42.238;24.684;2022-08-21T05:31:59;98779.97;;;20.80;100.00
28079;BME280;15388;42.238;24.684;2022-08-21T05:34:25;98781.38;;;20.83;100.00
28079;BME280;15388;42.238;24.684;2022-08-21T05:36:50;98784.66;;;20.92;100.00
28079;BME280;15388;42.238;24.684;2022-08-21T05:39:15;98779.13;;;21.05;100.00
28079;BME280;15388;42.238;24.684;2022-08-21T05:41:41;98789.19;;;21.17;100.00
28079;BME280;15388;42.238;24.684;2022-08-21T05:44:06;98808.78;;;21.31;100.00
28079;BME280;15388;42.238;24.684;2022-08-21T05:46:31;98803.31;;;21.37;100.00
28079;BME280;15388;42.238;24.684;2022-08-21T05:48:57;98799.09;;;21.42;100.00
28079;BME280;15388;42.238;24.684;2022-08-21T05:51:22;98802.56;;;21.49;100.00
28079;BME280;15388;42.238;24.684;2022-08-21T05:53:48;98805.03;;;21.50;100.00
28079;BME280;15388;42.238;24.684;2022-08-21T05:56:13;98806.47;;;21.53;100.00
28079;BME280;15388;42.238;24.684;2022-08-21T05:58:39;98804.34;;;21.55;100.00
28079;BME280;15388;42.238;24.684;2022-08-21T06:01:05;98806.91;;;21.50;100.00
28079;BME280;15388;42.238;24.684;2022-08-21T06:05:55;98802.63;;;21.23;100.00
28079;BME280;15388;42.238;24.684;2022-08-21T06:08:21;98814.19;;;21.12;100.00
28079;BME280;15388;42.238;24.684;2022-08-21T06:10:47;98815.09;;;21.06;100.00
28079;BME280;15388;42.238;24.684;2022-08-21T06:13:13;98809.91;;;21.04;100.00
28079;BME280;15388;42.238;24.684;2022-08-21T06:15:39;98817.88;;;20.99;100.00
28079;BME280;15388;42.238;24.684;2022-08-21T06:18:04;98820.56;;;20.99;100.00
28079;BME280;15388;42.238;24.684;2022-08-21T06:20:30;98823.41;;;21.04;100.00
28079;BME280;15388;42.238;24.684;2022-08-21T06:22:55;98817.66;;;21.00;100.00
28079;BME280;15388;42.238;24.684;2022-08-21T06:25:20;98820.72;;;21.04;100.00
28079;BME280;15388;42.238;24.684;2022-08-21T06:27:46;98820.72;;;21.04;100.00
28079;BME280;15388;42.238;24.684;2022-08-21T06:30:12;98814.50;;;21.04;100.00
28079;BME280;15388;42.238;24.684;2022-08-21T06:32:37;98815.31;;;21.04;100.00
28079;BME280;15388;42.238;24.684;2022-08-21T06:35:03;98819.50;;;21.00;100.00
28079;BME280;15388;42.238;24.684;2022-08-21T06:37:28;98817.56;;;21.07;100.00
28079;BME280;15388;42.238;24.684;2022-08-21T06:39:54;98815.19;;;21.18;100.00
28079;BME280;15388;42.238;24.684;2022-08-21T06:42:19;98816.69;;;21.32;100.00
28079;BME280;15388;42.238;24.684;2022-08-21T06:44:44;98826.63;;;21.38;100.00
28079;BME280;15388;42.238;24.684;2022-08-21T06:47:10;98824.06;;;21.44;100.00
28079;BME280;15388;42.238;24.684;2022-08-21T06:49:35;98813.16;;;21.50;100.00
28079;BME280;15388;42.238;24.684;2022-08-21T06:52:01;98813.41;;;21.30;100.00
28079;BME280;15388;42.238;24.684;2022-08-21T06:54:26;98798.50;;;21.21;100.00
28079;BME280;15388;42.238;24.684;2022-08-21T06:56:52;98794.22;;;21.13;100.00
28079;BME280;15388;42.238;24.684;2022-08-21T06:59:17;98801.13;;;21.09;100.00
28079;BME280;15388;42.238;24.684;2022-08-21T07:01:43;98811.81;;;21.22;100.00
28079;BME280;15388;42.238;24.684;2022-08-21T07:04:08;98798.38;;;21.34;100.00
28079;BME280;15388;42.238;24.684;2022-08-21T07:06:33;98796.69;;;21.33;100.00
28079;BME280;15388;42.238;24.684;2022-08-21T07:08:59;98790.03;;;21.36;100.00
28079;BME280;15388;42.238;24.684;2022-08-21T07:11:26;98794.38;;;21.37;100.00
28079;BME280;15388;42.238;24.684;2022-08-21T07:13:51;98802.03;;;21.40;100.00
28079;BME280;15388;42.238;24.684;2022-08-21T07:16:18;98783.78;;;21.35;100.00
28079;BME280;15388;42.238;24.684;2022-08-21T07:18:44;98785.41;;;21.36;100.00
28079;BME280;15388;42.238;24.684;2022-08-21T07:21:09;98790.16;;;21.41;100.00
28079;BME280;15388;42.238;24.684;2022-08-21T07:23:36;98797.38;;;21.47;100.00
28079;BME280;15388;42.238;24.684;2022-08-21T07:26:02;98790.81;;;21.55;100.00
28079;BME280;15388;42.238;24.684;2022-08-21T07:28:28;98789.69;;;21.63;100.00
28079;BME280;15388;42.238;24.684;2022-08-21T07:30:54;98788.84;;;21.62;100.00
28079;BME280;15388;42.238;24.684;2022-08-21T07:33:20;98781.72;;;21.68;100.00
28079;BME280;15388;42.238;24.684;2022-08-21T07:35:45;98780.88;;;21.68;100.00
28079;BME280;15388;42.238;24.684;2022-08-21T07:38:11;98779.25;;;21.67;100.00
28079;BME280;15388;42.238;24.684;2022-08-21T07:40:36;98776.38;;;21.61;100.00
28079;BME280;15388;42.238;24.684;2022-08-21T07:43:01;98779.75;;;21.57;100.00
28079;BME280;15388;42.238;24.684;2022-08-21T07:45:28;98778.56;;;21.53;100.00
28079;BME280;15388;42.238;24.684;2022-08-21T07:47:53;98782.69;;;21.55;100.00
28079;BME280;15388;42.238;24.684;2022-08-21T07:50:18;98776.91;;;21.51;100.00
28079;BME280;15388;42.238;24.684;2022-08-21T07:52:44;98772.34;;;21.52;100.00
28079;BME280;15388;42.238;24.684;2022-08-21T07:55:10;98776.59;;;21.60;100.00
28079;BME280;15388;42.238;24.684;2022-08-21T07:57:36;98775.03;;;21.71;100.00
28079;BME280;15388;42.238;24.684;2022-08-21T08:00:05;98782.38;;;21.82;100.00
28079;BME280;15388;42.238;24.684;2022-08-21T08:02:31;98782.38;;;21.82;100.00
28079;BME280;15388;42.238;24.684;2022-08-21T08:05:00;98793.34;;;21.87;100.00
28079;BME280;15388;42.238;24.684;2022-08-21T08:07:26;98793.56;;;21.86;100.00
28079;BME280;15388;42.238;24.684;2022-08-21T08:09:51;98787.56;;;21.84;100.00
28079;BME280;15388;42.238;24.684;2022-08-21T08:12:16;98795.94;;;21.82;100.00
28079;BME280;15388;42.238;24.684;2022-08-21T08:14:41;98786.44;;;21.92;100.00
28079;BME280;15388;42.238;24.684;2022-08-21T08:17:07;98790.06;;;21.85;100.00
28079;BME280;15388;42.238;24.684;2022-08-21T08:19:32;98787.81;;;21.82;100.00
28079;BME280;15388;42.238;24.684;2022-08-21T08:21:57;98778.84;;;21.82;100.00
28079;BME280;15388;42.238;24.684;2022-08-21T08:24:23;98782.38;;;21.82;100.00
28079;BME280;15388;42.238;24.684;2022-08-21T08:26:48;98773.66;;;21.80;100.00
28079;BME280;15388;42.238;24.684;2022-08-21T08:29:13;98767.78;;;21.83;100.00
28079;BME280;15388;42.238;24.684;2022-08-21T08:31:39;98764.84;;;21.85;100.00
28079;BME280;15388;42.238;24.684;2022-08-21T08:34:04;98771.84;;;21.74;100.00
28079;BME280;15388;42.238;24.684;2022-08-21T08:36:33;98769.31;;;21.79;100.00
28079;BME280;15388;42.238;24.684;2022-08-21T08:38:59;98754.94;;;21.79;100.00
28079;BME280;15388;42.238;24.684;2022-08-21T08:41:26;98767.47;;;21.73;100.00
28079;BME280;15388;42.238;24.684;2022-08-21T08:43:52;98765.09;;;21.64;100.00
28079;BME280;15388;42.238;24.684;2022-08-21T08:46:19;98758.34;;;21.55;100.00
28079;BME280;15388;42.238;24.684;2022-08-21T08:54:11;98761.03;;;21.55;100.00
28079;BME280;15388;42.238;24.684;2022-08-21T08:56:39;98763.28;;;21.58;100.00
28079;BME280;15388;42.238;24.684;2022-08-21T08:59:08;98763.06;;;21.60;100.00
28079;BME280;15388;42.238;24.684;2022-08-21T09:01:36;98755.16;;;21.58;100.00
28079;BME280;15388;42.238;24.684;2022-08-21T09:04:01;98756.22;;;21.57;100.00
28079;BME280;15388;42.238;24.684;2022-08-21T09:24:40;98728.22;;;21.82;100.00
28079;BME280;15388;42.238;24.684;2022-08-21T09:27:16;98728.50;;;21.93;100.00
28079;BME280;15388;42.238;24.684;2022-08-21T09:29:44;98733.00;;;21.99;100.00
28079;BME280;15388;42.238;24.684;2022-08-21T09:32:13;98720.53;;;22.10;100.00
28079;BME280;15388;42.238;24.684;2022-08-21T09:34:40;98719.72;;;22.21;100.00
28079;BME280;15388;42.238;24.684;2022-08-21T09:37:15;98716.44;;;22.19;100.00
28079;BME280;15388;42.238;24.684;2022-08-21T09:39:40;98696.03;;;22.17;100.00
28079;BME280;15388;42.238;24.684;2022-08-21T09:42:07;98704.25;;;21.98;100.00
28079;BME280;15388;42.238;24.684;2022-08-21T09:44:34;98699.78;;;21.92;100.00
28079;BME280;15388;42.238;24.684;2022-08-21T09:47:04;98702.25;;;22.05;100.00
28079;BME280;15388;42.238;24.684;2022-08-21T09:49:30;98698.75;;;22.17;100.00
28079;BME280;15388;42.238;24.684;2022-08-21T09:51:56;98707.56;;;22.24;100.00
28079;BME280;15388;42.238;24.684;2022-08-21T09:54:24;98700.75;;;22.33;100.00
28079;BME280;15388;42.238;24.684;2022-08-21T09:59:34;98703.13;;;22.42;100.00
28079;BME280;15388;42.238;24.684;2022-08-21T10:02:00;98711.94;;;22.37;100.00
28079;BME280;15388;42.238;24.684;2022-08-21T10:04:31;98713.50;;;22.45;100.00
28079;BME280;15388;42.238;24.684;2022-08-21T10:07:09;98707.28;;;22.44;100.00
28079;BME280;15388;42.238;24.684;2022-08-21T10:09:36;98715.25;;;22.27;100.00
28079;BME280;15388;42.238;24.684;2022-08-21T10:12:10;98718.84;;;21.97;100.00
28079;BME280;15388;42.238;24.684;2022-08-21T10:17:06;98717.81;;;22.10;100.00
28079;BME280;15388;42.238;24.684;2022-08-21T10:19:39;98718.66;;;22.10;100.00
28079;BME280;15388;42.238;24.684;2022-08-21T10:22:51;98716.31;;;22.26;100.00
28079;BME280;15388;42.238;24.684;2022-08-21T10:25:08;98716.31;;;22.26;100.00
28079;BME280;15388;42.238;24.684;2022-08-21T10:27:57;98716.56;;;22.36;100.00
28079;BME280;15388;42.238;24.684;2022-08-21T10:33:14;98712.91;;;22.43;100.00
28079;BME280;15388;42.238;24.684;2022-08-21T10:35:50;98720.31;;;22.47;100.00
28079;BME280;15388;42.238;24.684;2022-08-21T10:41:06;98721.06;;;22.43;100.00
28079;BME280;15388;42.238;24.684;2022-08-21T10:44:23;98718.56;;;22.41;100.00
28079;BME280;15388;42.238;24.684;2022-08-21T10:49:09;98722.44;;;22.33;100.00
28079;BME280;15388;42.238;24.684;2022-08-21T10:51:40;98718.44;;;22.48;100.00
28079;BME280;15388;42.238;24.684;2022-08-21T10:54:20;98729.16;;;22.55;100.00
28079;BME280;15388;42.238;24.684;2022-08-21T10:56:48;98728.59;;;22.52;100.00
28079;BME280;15388;42.238;24.684;2022-08-21T11:07:03;98718.09;;;22.92;100.00
28079;BME280;15388;42.238;24.684;2022-08-21T11:09:31;98721.75;;;22.98;100.00
28079;BME280;15388;42.238;24.684;2022-08-21T11:14:46;98721.50;;;23.11;100.00
28079;BME280;15388;42.238;24.684;2022-08-21T11:17:15;98726.78;;;23.18;100.00
28079;BME280;15388;42.238;24.684;2022-08-21T11:22:18;98720.03;;;23.21;100.00
28079;BME280;15388;42.238;24.684;2022-08-21T11:24:51;98716.94;;;23.29;100.00
28079;BME280;15388;42.238;24.684;2022-08-21T11:27:27;98713.97;;;23.31;100.00
28079;BME280;15388;42.238;24.684;2022-08-21T11:29:55;98719.31;;;23.37;100.00
28079;BME280;15388;42.238;24.684;2022-08-21T11:34:50;98710.31;;;23.49;100.00
28079;BME280;15388;42.238;24.684;2022-08-21T11:42:50;98710.50;;;23.59;100.00
28079;BME280;15388;42.238;24.684;2022-08-21T11:47:54;98712.06;;;23.55;100.00
28079;BME280;15388;42.238;24.684;2022-08-21T11:50:26;98709.19;;;23.62;100.00
28079;BME280;15388;42.238;24.684;2022-08-21T11:52:56;98709.34;;;23.55;100.00
28079;BME280;15388;42.238;24.684;2022-08-21T11:55:26;98714.25;;;23.58;100.00
28079;BME280;15388;42.238;24.684;2022-08-21T12:00:21;98704.28;;;23.47;100.00
28079;BME280;15388;42.238;24.684;2022-08-21T12:02:50;98695.34;;;23.46;100.00
28079;BME280;15388;42.238;24.684;2022-08-21T12:05:27;98696.13;;;23.47;100.00
28079;BME280;15388;42.238;24.684;2022-08-21T12:08:12;98691.06;;;23.50;100.00
28079;BME280;15388;42.238;24.684;2022-08-21T12:10:39;98689.03;;;23.58;100.00
28079;BME280;15388;42.238;24.684;2022-08-21T12:13:09;98679.06;;;23.63;100.00
28079;BME280;15388;42.238;24.684;2022-08-21T12:15:36;98673.06;;;23.61;100.00
28079;BME280;15388;42.238;24.684;2022-08-21T12:18:06;98659.97;;;23.58;100.00
28079;BME280;15388;42.238;24.684;2022-08-21T12:25:41;98660.78;;;23.59;100.00
28079;BME280;15388;42.238;24.684;2022-08-21T12:28:08;98656.38;;;23.70;100.00
28079;BME280;15388;42.238;24.684;2022-08-21T12:30:36;98659.19;;;23.75;100.00
28079;BME280;15388;42.238;24.684;2022-08-21T12:33:06;98663.78;;;23.74;100.00
28079;BME280;15388;42.238;24.684;2022-08-21T12:35:32;98653.25;;;23.78;100.00
28079;BME280;15388;42.238;24.684;2022-08-21T12:40:28;98661.25;;;23.85;100.00
28079;BME280;15388;42.238;24.684;2022-08-21T12:42:56;98658.03;;;23.88;100.00
28079;BME280;15388;42.238;24.684;2022-08-21T12:45:27;98654.47;;;23.87;100.00
28079;BME280;15388;42.238;24.684;2022-08-21T12:47:58;98653.09;;;23.85;100.00
28079;BME280;15388;42.238;24.684;2022-08-21T12:50:31;98654.72;;;23.69;100.00
28079;BME280;15388;42.238;24.684;2022-08-21T12:53:06;98657.53;;;23.74;100.00
28079;BME280;15388;42.238;24.684;2022-08-21T12:55:33;98645.53;;;23.70;100.00
28079;BME280;15388;42.238;24.684;2022-08-21T12:57:58;98648.25;;;23.70;100.00
28079;BME280;15388;42.238;24.684;2022-08-21T13:00:24;98641.72;;;23.71;100.00
28079;BME280;15388;42.238;24.684;2022-08-21T13:02:51;98639.09;;;23.76;100.00
28079;BME280;15388;42.238;24.684;2022-08-21T13:05:35;98637.94;;;23.72;100.00
28079;BME280;15388;42.238;24.684;2022-08-21T13:08:05;98636.38;;;23.76;100.00
28079;BME280;15388;42.238;24.684;2022-08-21T13:10:32;98644.69;;;23.86;100.00
28079;BME280;15388;42.238;24.684;2022-08-21T13:13:02;98649.16;;;23.92;100.00
28079;BME280;15388;42.238;24.684;2022-08-21T13:15:30;98645.19;;;23.83;100.00
28079;BME280;15388;42.238;24.684;2022-08-21T13:17:56;98644.03;;;23.79;100.00
28079;BME280;15388;42.238;24.684;2022-08-21T13:20:35;98637.50;;;23.46;100.00
28079;BME280;15388;42.238;24.684;2022-08-21T13:23:02;98637.75;;;23.44;100.00
28079;BME280;15388;42.238;24.684;2022-08-21T13:25:28;98639.25;;;23.52;100.00
28079;BME280;15388;42.238;24.684;2022-08-21T13:28:04;98635.25;;;23.43;100.00
28079;BME280;15388;42.238;24.684;2022-08-21T13:30:30;98645.63;;;23.46;100.00
28079;BME280;15388;42.238;24.684;2022-08-21T13:32:57;98635.75;;;23.39;100.00
28079;BME280;15388;42.238;24.684;2022-08-21T13:35:28;98635.94;;;23.50;100.00
28079;BME280;15388;42.238;24.684;2022-08-21T13:37:55;98631.59;;;23.49;100.00
28079;BME280;15388;42.238;24.684;2022-08-21T13:40:40;98632.16;;;23.51;100.00
28079;BME280;15388;42.238;24.684;2022-08-21T13:43:13;98626.41;;;23.64;100.00
28079;BME280;15388;42.238;24.684;2022-08-21T13:45:42;98626.00;;;23.73;100.00
28079;BME280;15388;42.238;24.684;2022-08-21T13:48:08;98621.31;;;23.85;100.00
28079;BME280;15388;42.238;24.684;2022-08-21T13:50:33;98627.06;;;23.89;100.00
28079;BME280;15388;42.238;24.684;2022-08-21T13:53:01;98625.13;;;23.84;100.00